sensor_id;sensor_type;location;lat;lon;timestamp;temperature;humidity
17341;DHT22;8788;49.930;8.660;2022-12-11T04:03:32;1.30;99.90
17341;DHT22;8788;49.930;8.660;2022-12-11T04:05:59;1.30;99.90
17341;DHT22;8788;49.930;8.660;2022-12-11T04:08:26;1.40;99.90
17341;DHT22;8788;49.930;8.660;2022-12-11T04:10:53;1.40;99.90
17341;DHT22;8788;49.930;8.660;2022-12-11T04:13:34;1.40;99.90
17341;DHT22;8788;49.930;8.660;2022-12-11T04:16:01;1.50;99.90
17341;DHT22;8788;49.930;8.660;2022-12-11T04:18:27;1.50;99.90
17341;DHT22;8788;49.930;8.660;2022-12-11T04:21:13;1.50;99.90
17341;DHT22;8788;49.930;8.660;2022-12-11T04:23:57;1.60;99.90
17341;DHT22;8788;49.930;8.660;2022-12-11T04:26:44;1.50;99.90
17341;DHT22;8788;49.930;8.660;2022-12-11T04:29:11;1.60;99.90
17341;DHT22;8788;49.930;8.660;2022-12-11T04:31:39;1.50;99.90
17341;DHT22;8788;49.930;8.660;2022-12-11T04:34:06;1.50;99.90
17341;DHT22;8788;49.930;8.660;2022-12-11T04:36:34;1.50;99.90
17341;DHT22;8788;49.930;8.660;2022-12-11T04:39:03;1.50;99.90
17341;DHT22;8788;49.930;8.660;2022-12-11T04:41:30;1.50;99.90
17341;DHT22;8788;49.930;8.660;2022-12-11T04:43:57;1.60;99.90
17341;DHT22;8788;49.930;8.660;2022-12-11T04:46:24;1.60;99.90
17341;DHT22;8788;49.930;8.660;2022-12-11T04:48:52;1.60;99.90
17341;DHT22;8788;49.930;8.660;2022-12-11T04:51:19;1.60;99.90
17341;DHT22;8788;49.930;8.660;2022-12-11T04:53:48;1.60;99.90
17341;DHT22;8788;49.930;8.660;2022-12-11T04:56:15;1.60;99.90
17341;DHT22;8788;49.930;8.660;2022-12-11T04:58:43;1.60;99.90
17341;DHT22;8788;49.930;8.660;2022-12-11T05:01:12;1.60;99.90
17341;DHT22;8788;49.930;8.660;2022-12-11T05:03:39;1.60;99.90
17341;DHT22;8788;49.930;8.660;2022-12-11T05:06:07;1.60;99.90
17341;DHT22;8788;49.930;8.660;2022-12-11T05:08:42;1.60;99.90
17341;DHT22;8788;49.930;8.660;2022-12-11T05:11:13;1.60;99.90
17341;DHT22;8788;49.930;8.660;2022-12-11T05:13:41;1.60;99.90
17341;DHT22;8788;49.930;8.660;2022-12-11T05:16:10;1.60;99.90
17341;DHT22;8788;49.930;8.660;2022-12-11T05:18:37;1.50;99.90
17341;DHT22;8788;49.930;8.660;2022-12-11T05:21:07;1.50;99.90
17341;DHT22;8788;49.930;8.660;2022-12-11T05:23:35;1.50;99.90
17341;DHT22;8788;49.930;8.660;2022-12-11T05:26:04;1.50;99.90
17341;DHT22;8788;49.930;8.660;2022-12-11T05:28:35;1.40;99.90
17341;DHT22;8788;49.930;8.660;2022-12-11T05:31:04;1.40;99.90
17341;DHT22;8788;49.930;8.660;2022-12-11T05:33:32;1.40;99.90
17341;DHT22;8788;49.930;8.660;2022-12-11T05:36:00;1.40;99.90
17341;DHT22;8788;49.930;8.660;2022-12-11T05:38:27;1.40;99.90
17341;DHT22;8788;49.930;8.660;2022-12-11T05:40:55;1.40;99.90
17341;DHT22;8788;49.930;8.660;2022-12-11T05:43:22;1.50;99.90
17341;DHT22;8788;49.930;8.660;2022-12-11T05:45:51;1.60;99.90
17341;DHT22;8788;49.930;8.660;2022-12-11T05:48:18;1.60;99.90
17341;DHT22;8788;49.930;8.660;2022-12-11T05:50:55;1.60;99.90
17341;DHT22;8788;49.930;8.660;2022-12-11T05:53:22;1.60;99.90
17341;DHT22;8788;49.930;8.660;2022-12-11T05:55:50;1.60;99.90
17341;DHT22;8788;49.930;8.660;2022-12-11T05:58:17;1.60;99.90
17341;DHT22;8788;49.930;8.660;2022-12-11T06:00:44;1.50;99.90
17341;DHT22;8788;49.930;8.660;2022-12-11T06:03:14;1.50;99.90
17341;DHT22;8788;49.930;8.660;2022-12-11T06:05:42;1.50;99.90
17341;DHT22;8788;49.930;8.660;2022-12-11T06:08:09;1.60;99.90
17341;DHT22;8788;49.930;8.660;2022-12-11T06:10:36;1.60;99.90
17341;DHT22;8788;49.930;8.660;2022-12-11T06:13:03;1.70;99.90
17341;DHT22;8788;49.930;8.660;2022-12-11T06:15:31;1.70;99.90
17341;DHT22;8788;49.930;8.660;2022-12-11T06:17:58;1.60;99.90
17341;DHT22;8788;49.930;8.660;2022-12-11T06:20:29;1.50;99.90
17341;DHT22;8788;49.930;8.660;2022-12-11T06:22:56;1.50;99.90
17341;DHT22;8788;49.930;8.660;2022-12-11T06:25:24;1.40;99.90
17341;DHT22;8788;49.930;8.660;2022-12-11T06:27:51;1.40;99.90
17341;DHT22;8788;49.930;8.660;2022-12-11T06:30:18;1.50;99.90
17341;DHT22;8788;49.930;8.660;2022-12-11T06:32:46;1.60;99.90
17341;DHT22;8788;49.930;8.660;2022-12-11T06:35:13;1.70;99.90
17341;DHT22;8788;49.930;8.660;2022-12-11T06:37:42;1.70;99.90
17341;DHT22;8788;49.930;8.660;2022-12-11T06:40:10;1.80;99.90
17341;DHT22;8788;49.930;8.660;2022-12-11T06:42:37;1.70;99.90
17341;DHT22;8788;49.930;8.660;2022-12-11T06:45:05;1.70;99.90
17341;DHT22;8788;49.930;8.660;2022-12-11T06:47:33;1.60;99.90
17341;DHT22;8788;49.930;8.660;2022-12-11T06:50:00;1.50;99.90
17341;DHT22;8788;49.930;8.660;2022-12-11T06:52:27;1.60;99.90
17341;DHT22;8788;49.930;8.660;2022-12-11T06:54:55;1.50;99.90
17341;DHT22;8788;49.930;8.660;2022-12-11T06:57:23;1.50;99.90
17341;DHT22;8788;49.930;8.660;2022-12-11T06:59:50;1.50;99.90
17341;DHT22;8788;49.930;8.660;2022-12-11T07:02:18;1.40;99.90
17341;DHT22;8788;49.930;8.660;2022-12-11T07:04:45;1.40;99.90
17341;DHT22;8788;49.930;8.660;2022-12-11T07:07:13;1.30;99.90
17341;DHT22;8788;49.930;8.660;2022-12-11T07:09:40;1.30;99.90
17341;DHT22;8788;49.930;8.660;2022-12-11T07:12:08;1.40;99.90
17341;DHT22;8788;49.930;8.660;2022-12-11T07:14:35;1.40;99.90
17341;DHT22;8788;49.930;8.660;2022-12-11T07:17:02;1.50;99.90
17341;DHT22;8788;49.930;8.660;2022-12-11T07:19:29;1.50;99.90
17341;DHT22;8788;49.930;8.660;2022-12-11T07:21:56;1.50;99.90
17341;DHT22;8788;49.930;8.660;2022-12-11T07:24:24;1.50;99.90
17341;DHT22;8788;49.930;8.660;2022-12-11T07:26:51;1.50;99.90
17341;DHT22;8788;49.930;8.660;2022-12-11T07:29:20;1.60;99.90
17341;DHT22;8788;49.930;8.660;2022-12-11T07:31:47;1.60;99.90
17341;DHT22;8788;49.930;8.660;2022-12-11T07:34:14;1.70;99.90
17341;DHT22;8788;49.930;8.660;2022-12-11T07:36:41;1.70;99.90
17341;DHT22;8788;49.930;8.660;2022-12-11T07:39:10;1.60;99.90
17341;DHT22;8788;49.930;8.660;2022-12-11T07:41:38;1.50;99.90
17341;DHT22;8788;49.930;8.660;2022-12-11T07:44:09;1.50;99.90
17341;DHT22;8788;49.930;8.660;2022-12-11T07:46:38;1.50;99.90
17341;DHT22;8788;49.930;8.660;2022-12-11T07:49:06;1.50;99.90
17341;DHT22;8788;49.930;8.660;2022-12-11T07:51:35;1.50;99.90
17341;DHT22;8788;49.930;8.660;2022-12-11T07:54:04;1.50;99.90
17341;DHT22;8788;49.930;8.660;2022-12-11T07:56:33;1.40;99.90
17341;DHT22;8788;49.930;8.660;2022-12-11T07:59:00;1.50;99.90
17341;DHT22;8788;49.930;8.660;2022-12-11T08:01:29;1.50;99.90
17341;DHT22;8788;49.930;8.660;2022-12-11T08:03:58;1.50;99.90
17341;DHT22;8788;49.930;8.660;2022-12-11T08:06:27;1.50;99.90
17341;DHT22;8788;49.930;8.660;2022-12-11T08:08:54;1.60;99.90
17341;DHT22;8788;49.930;8.660;2022-12-11T08:11:21;1.70;99.90
17341;DHT22;8788;49.930;8.660;2022-12-11T08:13:48;1.80;99.90
17341;DHT22;8788;49.930;8.660;2022-12-11T08:16:16;1.70;99.90
17341;DHT22;8788;49.930;8.660;2022-12-11T08:18:44;1.80;99.90
17341;DHT22;8788;49.930;8.660;2022-12-11T08:21:15;1.70;99.90
17341;DHT22;8788;49.930;8.660;2022-12-11T08:23:43;1.70;99.90
17341;DHT22;8788;49.930;8.660;2022-12-11T08:26:12;1.70;99.90
17341;DHT22;8788;49.930;8.660;2022-12-11T08:28:40;1.60;99.90
17341;DHT22;8788;49.930;8.660;2022-12-11T08:31:09;1.60;99.90
17341;DHT22;8788;49.930;8.660;2022-12-11T08:33:37;1.70;99.90
17341;DHT22;8788;49.930;8.660;2022-12-11T08:36:06;1.70;99.90
17341;DHT22;8788;49.930;8.660;2022-12-11T08:38:36;1.70;99.90
17341;DHT22;8788;49.930;8.660;2022-12-11T08:41:07;1.70;99.90
17341;DHT22;8788;49.930;8.660;2022-12-11T08:43:35;1.70;99.90
17341;DHT22;8788;49.930;8.660;2022-12-11T08:46:02;1.70;99.90
17341;DHT22;8788;49.930;8.660;2022-12-11T08:48:29;1.80;99.90
17341;DHT22;8788;49.930;8.660;2022-12-11T08:50:58;1.90;99.90
17341;DHT22;8788;49.930;8.660;2022-12-11T08:53:26;1.90;99.90
17341;DHT22;8788;49.930;8.660;2022-12-11T08:55:59;1.90;99.90
17341;DHT22;8788;49.930;8.660;2022-12-11T08:58:27;1.90;99.90
17341;DHT22;8788;49.930;8.660;2022-12-11T09:00:54;1.70;99.90
17341;DHT22;8788;49.930;8.660;2022-12-11T09:03:21;1.80;99.90
17341;DHT22;8788;49.930;8.660;2022-12-11T09:05:48;1.80;99.90
17341;DHT22;8788;49.930;8.660;2022-12-11T09:08:15;1.80;99.90
17341;DHT22;8788;49.930;8.660;2022-12-11T09:10:42;1.80;99.90
17341;DHT22;8788;49.930;8.660;2022-12-11T09:13:11;1.80;99.90
17341;DHT22;8788;49.930;8.660;2022-12-11T09:15:39;1.80;99.90
17341;DHT22;8788;49.930;8.660;2022-12-11T09:18:07;1.80;99.90
17341;DHT22;8788;49.930;8.660;2022-12-11T09:20:34;1.70;99.90
17341;DHT22;8788;49.930;8.660;2022-12-11T09:23:02;1.70;99.90
17341;DHT22;8788;49.930;8.660;2022-12-11T09:25:29;1.80;99.90
17341;DHT22;8788;49.930;8.660;2022-12-11T09:27:56;1.80;99.90
17341;DHT22;8788;49.930;8.660;2022-12-11T09:30:24;1.90;99.90
17341;DHT22;8788;49.930;8.660;2022-12-11T09:32:51;2.00;99.90
17341;DHT22;8788;49.930;8.660;2022-12-11T09:35:19;2.00;99.90
17341;DHT22;8788;49.930;8.660;2022-12-11T09:37:46;1.90;99.90
17341;DHT22;8788;49.930;8.660;2022-12-11T09:40:13;1.90;99.90
17341;DHT22;8788;49.930;8.660;2022-12-11T09:42:50;2.00;99.90
17341;DHT22;8788;49.930;8.660;2022-12-11T09:45:19;2.10;99.90
17341;DHT22;8788;49.930;8.660;2022-12-11T09:47:50;2.20;99.90
17341;DHT22;8788;49.930;8.660;2022-12-11T09:50:22;2.20;99.90
17341;DHT22;8788;49.930;8.660;2022-12-11T09:52:58;2.30;99.90
17341;DHT22;8788;49.930;8.660;2022-12-11T09:55:35;2.30;99.90
17341;DHT22;8788;49.930;8.660;2022-12-11T09:58:12;2.40;99.90
17341;DHT22;8788;49.930;8.660;2022-12-11T10:00:46;2.30;99.90
17341;DHT22;8788;49.930;8.660;2022-12-11T10:03:37;2.30;99.90
17341;DHT22;8788;49.930;8.660;2022-12-11T10:06:11;2.30;99.90
17341;DHT22;8788;49.930;8.660;2022-12-11T10:08:46;2.20;99.90
17341;DHT22;8788;49.930;8.660;2022-12-11T10:11:42;2.20;99.90
17341;DHT22;8788;49.930;8.660;2022-12-11T10:14:16;2.20;99.90
17341;DHT22;8788;49.930;8.660;2022-12-11T10:16:48;2.20;99.90
17341;DHT22;8788;49.930;8.660;2022-12-11T10:19:20;2.20;99.90
17341;DHT22;8788;49.930;8.660;2022-12-11T10:21:49;2.20;99.90
17341;DHT22;8788;49.930;8.660;2022-12-11T10:24:21;2.20;99.90
17341;DHT22;8788;49.930;8.660;2022-12-11T10:26:54;2.30;99.90
17341;DHT22;8788;49.930;8.660;2022-12-11T10:29:23;2.30;99.90
17341;DHT22;8788;49.930;8.660;2022-12-11T10:31:55;2.40;99.90
17341;DHT22;8788;49.930;8.660;2022-12-11T10:34:31;2.40;99.90
17341;DHT22;8788;49.930;8.660;2022-12-11T10:37:00;2.50;99.90
17341;DHT22;8788;49.930;8.660;2022-12-11T10:39:27;2.50;99.90
17341;DHT22;8788;49.930;8.660;2022-12-11T10:41:55;2.50;99.90
17341;DHT22;8788;49.930;8.660;2022-12-11T10:44:25;2.50;99.90
17341;DHT22;8788;49.930;8.660;2022-12-11T10:47:03;2.60;99.90
17341;DHT22;8788;49.930;8.660;2022-12-11T10:49:34;2.60;99.90
17341;DHT22;8788;49.930;8.660;2022-12-11T10:52:09;2.60;99.90
17341;DHT22;8788;49.930;8.660;2022-12-11T10:54:38;2.70;99.90
17341;DHT22;8788;49.930;8.660;2022-12-11T10:57:08;2.70;99.90
17341;DHT22;8788;49.930;8.660;2022-12-11T10:59:37;2.70;99.90
17341;DHT22;8788;49.930;8.660;2022-12-11T11:02:17;2.70;99.90
17341;DHT22;8788;49.930;8.660;2022-12-11T11:04:46;2.60;99.90
17341;DHT22;8788;49.930;8.660;2022-12-11T11:07:18;2.40;99.90
17341;DHT22;8788;49.930;8.660;2022-12-11T11:09:46;2.50;99.90
17341;DHT22;8788;49.930;8.660;2022-12-11T11:12:19;2.50;99.90
17341;DHT22;8788;49.930;8.660;2022-12-11T11:14:56;2.50;99.90
17341;DHT22;8788;49.930;8.660;2022-12-11T11:17:24;2.50;99.90
17341;DHT22;8788;49.930;8.660;2022-12-11T11:19:52;2.50;99.90
17341;DHT22;8788;49.930;8.660;2022-12-11T11:22:20;2.50;99.90
17341;DHT22;8788;49.930;8.660;2022-12-11T11:24:53;2.50;99.90
17341;DHT22;8788;49.930;8.660;2022-12-11T11:27:27;2.60;99.90
17341;DHT22;8788;49.930;8.660;2022-12-11T11:29:58;2.70;99.90
17341;DHT22;8788;49.930;8.660;2022-12-11T11:32:31;2.70;99.90
17341;DHT22;8788;49.930;8.660;2022-12-11T11:35:15;2.80;99.90
17341;DHT22;8788;49.930;8.660;2022-12-11T11:37:51;2.70;99.90
17341;DHT22;8788;49.930;8.660;2022-12-11T11:40:23;2.70;99.90
17341;DHT22;8788;49.930;8.660;2022-12-11T11:42:58;2.60;99.90
17341;DHT22;8788;49.930;8.660;2022-12-11T11:45:30;2.60;99.90
17341;DHT22;8788;49.930;8.660;2022-12-11T11:48:10;2.70;99.90
17341;DHT22;8788;49.930;8.660;2022-12-11T11:50:44;2.70;99.90
17341;DHT22;8788;49.930;8.660;2022-12-11T11:53:19;2.70;99.90
17341;DHT22;8788;49.930;8.660;2022-12-11T11:55:57;2.60;99.90
17341;DHT22;8788;49.930;8.660;2022-12-11T11:58:36;2.70;99.90
17341;DHT22;8788;49.930;8.660;2022-12-11T12:01:12;2.70;99.90
17341;DHT22;8788;49.930;8.660;2022-12-11T12:03:40;2.80;99.90
17341;DHT22;8788;49.930;8.660;2022-12-11T12:06:14;2.80;99.90
17341;DHT22;8788;49.930;8.660;2022-12-11T12:08:52;2.70;99.90
17341;DHT22;8788;49.930;8.660;2022-12-11T12:11:29;2.70;99.90
17341;DHT22;8788;49.930;8.660;2022-12-11T12:14:06;2.70;99.90
17341;DHT22;8788;49.930;8.660;2022-12-11T12:16:42;2.70;99.90
17341;DHT22;8788;49.930;8.660;2022-12-11T12:19:19;2.70;99.90
17341;DHT22;8788;49.930;8.660;2022-12-11T12:21:54;2.70;99.90
17341;DHT22;8788;49.930;8.660;2022-12-11T12:24:28;2.80;99.90
17341;DHT22;8788;49.930;8.660;2022-12-11T12:27:06;2.80;99.90
17341;DHT22;8788;49.930;8.660;2022-12-11T12:29:44;2.90;99.90
17341;DHT22;8788;49.930;8.660;2022-12-11T12:32:23;2.90;99.90
17341;DHT22;8788;49.930;8.660;2022-12-11T12:35:04;2.80;99.90
17341;DHT22;8788;49.930;8.660;2022-12-11T12:37:45;2.80;99.90
17341;DHT22;8788;49.930;8.660;2022-12-11T12:40:22;2.80;99.90
17341;DHT22;8788;49.930;8.660;2022-12-11T12:42:55;2.80;99.90
17341;DHT22;8788;49.930;8.660;2022-12-11T12:45:29;2.80;99.90
17341;DHT22;8788;49.930;8.660;2022-12-11T12:47:58;2.80;99.90
17341;DHT22;8788;49.930;8.660;2022-12-11T12:50:32;2.80;99.90
17341;DHT22;8788;49.930;8.660;2022-12-11T12:53:04;2.80;99.90
17341;DHT22;8788;49.930;8.660;2022-12-11T12:55:33;2.80;99.90
17341;DHT22;8788;49.930;8.660;2022-12-11T12:58:03;2.80;99.90
17341;DHT22;8788;49.930;8.660;2022-12-11T13:00:33;2.80;99.90
17341;DHT22;8788;49.930;8.660;2022-12-11T13:03:02;2.80;99.90
17341;DHT22;8788;49.930;8.660;2022-12-11T13:05:41;2.80;99.90
17341;DHT22;8788;49.930;8.660;2022-12-11T13:08:11;2.80;99.90
17341;DHT22;8788;49.930;8.660;2022-12-11T13:10:41;2.80;99.90
17341;DHT22;8788;49.930;8.660;2022-12-11T13:13:33;2.70;99.90
17341;DHT22;8788;49.930;8.660;2022-12-11T13:16:24;2.80;99.90
17341;DHT22;8788;49.930;8.660;2022-12-11T13:18:55;2.80;99.90
17341;DHT22;8788;49.930;8.660;2022-12-11T13:21:27;2.70;99.90
17341;DHT22;8788;49.930;8.660;2022-12-11T13:24:15;2.70;99.90
17341;DHT22;8788;49.930;8.660;2022-12-11T13:26:45;2.70;99.90
17341;DHT22;8788;49.930;8.660;2022-12-11T13:29:30;2.60;99.90
17341;DHT22;8788;49.930;8.660;2022-12-11T13:31:58;2.60;99.90
17341;DHT22;8788;49.930;8.660;2022-12-11T13:34:30;2.50;99.90
17341;DHT22;8788;49.930;8.660;2022-12-11T13:36:58;2.50;99.90
17341;DHT22;8788;49.930;8.660;2022-12-11T13:39:30;2.50;99.90
17341;DHT22;8788;49.930;8.660;2022-12-11T13:42:01;2.60;99.90
17341;DHT22;8788;49.930;8.660;2022-12-11T13:44:30;2.60;99.90
17341;DHT22;8788;49.930;8.660;2022-12-11T13:47:01;2.70;99.90
17341;DHT22;8788;49.930;8.660;2022-12-11T13:49:33;2.60;99.90
17341;DHT22;8788;49.930;8.660;2022-12-11T13:52:01;2.60;99.90
17341;DHT22;8788;49.930;8.660;2022-12-11T13:54:32;2.60;99.90
17341;DHT22;8788;49.930;8.660;2022-12-11T13:57:02;2.50;99.90
17341;DHT22;8788;49.930;8.660;2022-12-11T13:59:32;2.60;99.90
17341;DHT22;8788;49.930;8.660;2022-12-11T14:02:04;2.70;99.90
17341;DHT22;8788;49.930;8.660;2022-12-11T14:04:37;2.70;99.90
17341;DHT22;8788;49.930;8.660;2022-12-11T14:07:06;2.70;99.90
17341;DHT22;8788;49.930;8.660;2022-12-11T14:09:39;2.70;99.90
17341;DHT22;8788;49.930;8.660;2022-12-11T14:12:16;2.60;99.90
17341;DHT22;8788;49.930;8.660;2022-12-11T14:14:46;2.60;99.90
17341;DHT22;8788;49.930;8.660;2022-12-11T14:17:21;2.60;99.90
17341;DHT22;8788;49.930;8.660;2022-12-11T14:19:49;2.70;99.90
17341;DHT22;8788;49.930;8.660;2022-12-11T14:22:19;2.70;99.90
17341;DHT22;8788;49.930;8.660;2022-12-11T14:24:53;2.70;99.90
17341;DHT22;8788;49.930;8.660;2022-12-11T14:27:21;2.70;99.90
17341;DHT22;8788;49.930;8.660;2022-12-11T14:29:48;2.70;99.90
17341;DHT22;8788;49.930;8.660;2022-12-11T14:32:18;2.80;99.90
17341;DHT22;8788;49.930;8.660;2022-12-11T14:34:48;2.70;99.90
17341;DHT22;8788;49.930;8.660;2022-12-11T14:37:17;2.60;99.90
17341;DHT22;8788;49.930;8.660;2022-12-11T14:39:52;2.60;99.90
17341;DHT22;8788;49.930;8.660;2022-12-11T14:42:22;2.70;99.90
17341;DHT22;8788;49.930;8.660;2022-12-11T14:44:53;2.70;99.90
17341;DHT22;8788;49.930;8.660;2022-12-11T14:47:23;2.70;99.90
17341;DHT22;8788;49.930;8.660;2022-12-11T14:49:55;2.70;99.90
17341;DHT22;8788;49.930;8.660;2022-12-11T14:52:30;2.70;99.90
17341;DHT22;8788;49.930;8.660;2022-12-11T14:55:04;2.70;99.90
17341;DHT22;8788;49.930;8.660;2022-12-11T14:57:33;2.60;99.90
17341;DHT22;8788;49.930;8.660;2022-12-11T15:00:01;2.60;99.90
17341;DHT22;8788;49.930;8.660;2022-12-11T15:02:30;2.70;99.90
17341;DHT22;8788;49.930;8.660;2022-12-11T15:05:02;2.70;99.90
17341;DHT22;8788;49.930;8.660;2022-12-11T15:07:29;2.80;99.90
17341;DHT22;8788;49.930;8.660;2022-12-11T15:09:57;2.80;99.90
17341;DHT22;8788;49.930;8.660;2022-12-11T15:12:26;2.80;99.90
17341;DHT22;8788;49.930;8.660;2022-12-11T15:14:54;2.80;99.90
17341;DHT22;8788;49.930;8.660;2022-12-11T15:17:23;2.90;99.90
17341;DHT22;8788;49.930;8.660;2022-12-11T15:19:53;2.90;99.90
17341;DHT22;8788;49.930;8.660;2022-12-11T15:22:22;2.80;99.90
17341;DHT22;8788;49.930;8.660;2022-12-11T15:24:53;2.70;99.90
17341;DHT22;8788;49.930;8.660;2022-12-11T15:27:29;2.70;99.90
17341;DHT22;8788;49.930;8.660;2022-12-11T15:29:56;2.70;99.90
17341;DHT22;8788;49.930;8.660;2022-12-11T15:32:24;2.80;99.90
17341;DHT22;8788;49.930;8.660;2022-12-11T15:34:52;2.80;99.90
17341;DHT22;8788;49.930;8.660;2022-12-11T15:37:21;2.80;99.90
17341;DHT22;8788;49.930;8.660;2022-12-11T15:39:49;2.70;99.90
17341;DHT22;8788;49.930;8.660;2022-12-11T15:42:23;2.70;99.90
17341;DHT22;8788;49.930;8.660;2022-12-11T15:44:52;2.70;99.90
17341;DHT22;8788;49.930;8.660;2022-12-11T15:47:21;2.80;99.90
17341;DHT22;8788;49.930;8.660;2022-12-11T15:49:49;2.80;99.90
17341;DHT22;8788;49.930;8.660;2022-12-11T15:52:19;2.80;99.90
17341;DHT22;8788;49.930;8.660;2022-12-11T15:54:46;2.80;99.90
17341;DHT22;8788;49.930;8.660;2022-12-11T15:57:15;2.80;99.90
17341;DHT22;8788;49.930;8.660;2022-12-11T15:59:44;2.80;99.90
17341;DHT22;8788;49.930;8.660;2022-12-11T16:02:15;2.80;99.90
17341;DHT22;8788;49.930;8.660;2022-12-11T16:04:42;2.80;99.90
17341;DHT22;8788;49.930;8.660;2022-12-11T16:07:14;2.80;99.90
17341;DHT22;8788;49.930;8.660;2022-12-11T16:09:41;2.80;99.90
17341;DHT22;8788;49.930;8.660;2022-12-11T16:12:09;2.80;99.90
17341;DHT22;8788;49.930;8.660;2022-12-11T16:14:36;2.80;99.90
17341;DHT22;8788;49.930;8.660;2022-12-11T16:17:04;2.80;99.90
17341;DHT22;8788;49.930;8.660;2022-12-11T16:19:33;2.80;99.90
17341;DHT22;8788;49.930;8.660;2022-12-11T16:22:01;2.80;99.90
17341;DHT22;8788;49.930;8.660;2022-12-11T16:24:29;2.70;99.90
17341;DHT22;8788;49.930;8.660;2022-12-11T16:26:57;2.70;99.90
17341;DHT22;8788;49.930;8.660;2022-12-11T16:29:24;2.70;99.90
17341;DHT22;8788;49.930;8.660;2022-12-11T16:31:51;2.70;99.90
17341;DHT22;8788;49.930;8.660;2022-12-11T16:34:19;2.70;99.90
17341;DHT22;8788;49.930;8.660;2022-12-11T16:36:51;2.60;99.90
17341;DHT22;8788;49.930;8.660;2022-12-11T16:39:19;2.60;99.90
17341;DHT22;8788;49.930;8.660;2022-12-11T16:41:46;2.60;99.90
17341;DHT22;8788;49.930;8.660;2022-12-11T16:44:17;2.50;99.90
17341;DHT22;8788;49.930;8.660;2022-12-11T16:46:44;2.50;99.90
17341;DHT22;8788;49.930;8.660;2022-12-11T16:49:12;2.50;99.90
17341;DHT22;8788;49.930;8.660;2022-12-11T16:51:39;2.50;99.90
17341;DHT22;8788;49.930;8.660;2022-12-11T16:54:08;2.50;99.90
17341;DHT22;8788;49.930;8.660;2022-12-11T16:56:36;2.50;99.90
17341;DHT22;8788;49.930;8.660;2022-12-11T16:59:04;2.50;99.90
17341;DHT22;8788;49.930;8.660;2022-12-11T17:01:32;2.50;99.90
17341;DHT22;8788;49.930;8.660;2022-12-11T17:03:59;2.60;99.90
17341;DHT22;8788;49.930;8.660;2022-12-11T17:06:27;2.50;99.90
17341;DHT22;8788;49.930;8.660;2022-12-11T17:08:55;2.60;99.90
17341;DHT22;8788;49.930;8.660;2022-12-11T17:11:23;2.60;99.90
17341;DHT22;8788;49.930;8.660;2022-12-11T17:13:52;2.60;99.90
17341;DHT22;8788;49.930;8.660;2022-12-11T17:16:19;2.70;99.90
17341;DHT22;8788;49.930;8.660;2022-12-11T17:18:49;2.70;99.90
17341;DHT22;8788;49.930;8.660;2022-12-11T17:21:18;2.70;99.90
17341;DHT22;8788;49.930;8.660;2022-12-11T17:23:45;2.70;99.90
17341;DHT22;8788;49.930;8.660;2022-12-11T17:26:12;2.70;99.90
17341;DHT22;8788;49.930;8.660;2022-12-11T17:28:41;2.70;99.90
17341;DHT22;8788;49.930;8.660;2022-12-11T17:31:12;2.70;99.90
17341;DHT22;8788;49.930;8.660;2022-12-11T17:33:39;2.70;99.90
17341;DHT22;8788;49.930;8.660;2022-12-11T17:36:07;2.70;99.90
17341;DHT22;8788;49.930;8.660;2022-12-11T17:38:35;2.80;99.90
17341;DHT22;8788;49.930;8.660;2022-12-11T17:41:05;2.80;99.90
17341;DHT22;8788;49.930;8.660;2022-12-11T17:43:32;2.80;99.90
17341;DHT22;8788;49.930;8.660;2022-12-11T17:46:00;2.80;99.90
17341;DHT22;8788;49.930;8.660;2022-12-11T17:48:28;2.70;99.90
17341;DHT22;8788;49.930;8.660;2022-12-11T17:50:55;2.70;99.90
17341;DHT22;8788;49.930;8.660;2022-12-11T17:53:23;2.70;99.90
17341;DHT22;8788;49.930;8.660;2022-12-11T17:55:51;2.70;99.90
17341;DHT22;8788;49.930;8.660;2022-12-11T17:58:20;2.70;99.90
17341;DHT22;8788;49.930;8.660;2022-12-11T18:00:51;2.80;99.90
17341;DHT22;8788;49.930;8.660;2022-12-11T18:03:20;2.80;99.90
17341;DHT22;8788;49.930;8.660;2022-12-11T18:05:49;2.80;99.90
17341;DHT22;8788;49.930;8.660;2022-12-11T18:08:18;2.80;99.90
17341;DHT22;8788;49.930;8.660;2022-12-11T18:10:45;2.80;99.90
17341;DHT22;8788;49.930;8.660;2022-12-11T18:13:13;2.80;99.90
17341;DHT22;8788;49.930;8.660;2022-12-11T18:15:41;2.70;99.90
17341;DHT22;8788;49.930;8.660;2022-12-11T18:18:08;2.70;99.90
17341;DHT22;8788;49.930;8.660;2022-12-11T18:20:37;2.70;99.90
17341;DHT22;8788;49.930;8.660;2022-12-11T18:23:04;2.70;99.90
17341;DHT22;8788;49.930;8.660;2022-12-11T18:25:32;2.60;99.90
17341;DHT22;8788;49.930;8.660;2022-12-11T18:27:59;2.60;99.90
17341;DHT22;8788;49.930;8.660;2022-12-11T18:30:26;2.50;99.90
17341;DHT22;8788;49.930;8.660;2022-12-11T18:32:54;2.50;99.90
17341;DHT22;8788;49.930;8.660;2022-12-11T18:35:21;2.50;99.90
17341;DHT22;8788;49.930;8.660;2022-12-11T18:37:51;2.50;99.90
17341;DHT22;8788;49.930;8.660;2022-12-11T18:40:18;2.40;99.90
17341;DHT22;8788;49.930;8.660;2022-12-11T18:42:46;2.40;99.90
17341;DHT22;8788;49.930;8.660;2022-12-11T18:45:13;2.40;99.90
17341;DHT22;8788;49.930;8.660;2022-12-11T18:47:40;2.30;99.90
17341;DHT22;8788;49.930;8.660;2022-12-11T18:50:07;2.30;99.90
17341;DHT22;8788;49.930;8.660;2022-12-11T18:52:34;2.30;99.90
17341;DHT22;8788;49.930;8.660;2022-12-11T18:55:03;2.30;99.90
17341;DHT22;8788;49.930;8.660;2022-12-11T18:57:31;2.30;99.90
17341;DHT22;8788;49.930;8.660;2022-12-11T18:59:58;2.30;99.90
17341;DHT22;8788;49.930;8.660;2022-12-11T19:02:32;2.30;99.90
17341;DHT22;8788;49.930;8.660;2022-12-11T19:04:59;2.30;99.90
17341;DHT22;8788;49.930;8.660;2022-12-11T19:07:27;2.30;99.90
17341;DHT22;8788;49.930;8.660;2022-12-11T19:09:54;2.30;99.90
17341;DHT22;8788;49.930;8.660;2022-12-11T19:12:23;2.30;99.90
17341;DHT22;8788;49.930;8.660;2022-12-11T19:14:50;2.30;99.90
17341;DHT22;8788;49.930;8.660;2022-12-11T19:17:17;2.30;99.90
17341;DHT22;8788;49.930;8.660;2022-12-11T19:19:44;2.30;99.90
17341;DHT22;8788;49.930;8.660;2022-12-11T19:22:12;2.30;99.90
17341;DHT22;8788;49.930;8.660;2022-12-11T19:24:39;2.30;99.90
17341;DHT22;8788;49.930;8.660;2022-12-11T19:27:06;2.30;99.90
17341;DHT22;8788;49.930;8.660;2022-12-11T19:29:35;2.30;99.90
17341;DHT22;8788;49.930;8.660;2022-12-11T19:32:04;2.30;99.90
17341;DHT22;8788;49.930;8.660;2022-12-11T19:34:31;2.30;99.90
17341;DHT22;8788;49.930;8.660;2022-12-11T19:36:58;2.20;99.90
17341;DHT22;8788;49.930;8.660;2022-12-11T19:39:25;2.20;99.90
17341;DHT22;8788;49.930;8.660;2022-12-11T19:41:52;2.20;99.90
17341;DHT22;8788;49.930;8.660;2022-12-11T19:44:19;2.20;99.90
17341;DHT22;8788;49.930;8.660;2022-12-11T19:46:48;2.20;99.90
17341;DHT22;8788;49.930;8.660;2022-12-11T19:49:15;2.20;99.90
17341;DHT22;8788;49.930;8.660;2022-12-11T19:51:43;2.20;99.90
17341;DHT22;8788;49.930;8.660;2022-12-11T19:54:13;2.20;99.90
17341;DHT22;8788;49.930;8.660;2022-12-11T19:56:40;2.20;99.90
17341;DHT22;8788;49.930;8.660;2022-12-11T19:59:10;2.20;99.90
17341;DHT22;8788;49.930;8.660;2022-12-11T20:01:38;2.20;99.90
17341;DHT22;8788;49.930;8.660;2022-12-11T20:04:09;2.10;99.90
17341;DHT22;8788;49.930;8.660;2022-12-11T20:06:39;2.10;99.90
17341;DHT22;8788;49.930;8.660;2022-12-11T20:09:07;2.10;99.90
17341;DHT22;8788;49.930;8.660;2022-12-11T20:11:36;2.20;99.90
17341;DHT22;8788;49.930;8.660;2022-12-11T20:14:04;2.20;99.90
17341;DHT22;8788;49.930;8.660;2022-12-11T20:16:31;2.20;99.90
17341;DHT22;8788;49.930;8.660;2022-12-11T20:18:58;2.20;99.90
17341;DHT22;8788;49.930;8.660;2022-12-11T20:21:27;2.20;99.90